Terminal Aerodrome Forecast
Issued by NWS

Home | Current Version | Previous Version | Text Only | Print | Product List | Glossary Off
Versions: 1 2 3 4 5 6 7 8 9 10 11 12

000
FTUS45 KGGW 170520
TAFSDY
TAF
KSDY 170520Z 1706/1806 27006KT P6SM OVC100
     FM171200 31011KT P6SM BKN050
     FM180200 08005KT P6SM VCSH OVC060
     FM180400 07007KT 5SM -SN OVC030=

USA.gov is the U.S. government's official web portal to all federal, state and local government web resources and services.